Portada
METAR-TAF:

METAR-TAF

Aeroports :

Damasc, Síria

latitud: 33-25N, longitud: 036-31E, altitud: 608 m

Observació

L'informe es va fer fa 46 minuts, a les 00:00 UTC
Vent 14 kt del Sud-Oest
Temperatura 3°C
Humitat 87%
Pressió 1017 hPa
Visibilitat 10 km o més
sense núvols per sota de 1500 mi sense presència de cumulonimbus.

METAR: OSDI 200000Z 22014KT CAVOK 03/01 Q1017

Hora: 02:46 (00:46 UTC)

Pronòstic

L'informe es va fer fa 2 hores i 16 minuts, a les 22:30 UTC
Pronòstic vàlid del 20 a les 00 UTC al 21 a les 06 UTC
Vent 3 kt amb direcció variable
Probabilitat 30% :
Temporalment
l' 20 a les 02 UTC al 20 a les 06 UTC
Núvols disperses a una alçada de 700 ft
Evolucionant progressivament
l' 20 a les 08 UTC al 20 a les 10 UTC
Vent 12 kt del Oest
Visibilitat: 8000 m
Escasses núvols a una alçada de 3000 ft

TAF: OSDI 192230Z 2000/2106 VRB03KT 3000BR PROB30 TEMPO 2002/2006 0200FG SCT007 BECMG 2008/2010 27012KT 8000 FEW030

Observacions i pronòstics meteorològics de més de 4000 aeroports (METAR i TAF).

Les estacions disponibles són els punts grocs i vermells al mapa.

Posi el ratolí al punt desitjat per veure el nom de l'estació.

Feu clic per veure les observacions i els pronòstics meteorològics.

Per canviar el mapa: feu clic els botons verds amb una creu de color negre per apropar; al botó verd amb un guió per allunyar la imatge; o en les fletxes verdes per a mapes adjacents.


METAR-TAF: